| Record Date MM/DD/YYYY | Record Time HH:MM:SS | Record Julian Date NNN day of the year | Air Temperature Max (Degrees Fahrenheit F) | Time Max Air Temperature HH:MM:SS This is the time of max air temp for the prior hour interval listed for record [Time]. | Air Temperature Min (Degrees Fahrenheit F) | Time Min Air Temperature HH:MM:SS This is the time of min air temp for the prior hour interval listed for record [Time]. | Air Temperature Observed (Degrees Fahrenheit F) This is an instantaneous reading at the record [Time]. | Relative Humidity Max (Percent) | Time Max Relative Humidity HH:MM:SS This is the time of max relative humidity for the prior hour interval listed for record [Time]. | Relative Humidity Min (Percent) | Time Min Relative Humidity HH:MM:SS This is the time of min relative humidity for the prior hour interval listed for record [Time]. | Relative Humidity Observed (Percent) This is an instantaneous reading at the record [Time]. | Precipitation (Inches n.nn) rain fall that occurred during the prior hour interval listed for record [Time]. | Wind Speed (Miles Per Hour) Resultant Speed that occurred during the prior hour interval listed for record [Time]. | Wind Direction (Degrees) Resultant Direction that occurred during the prior hour interval listed for record [Time]. | Solar Radiation (Langley's) that occurred during the prior hour interval listed for record [Time]. | Soil Temperature Average at 2 inch depth (Degrees Fahrenheit F) that occurred during the prior hour interval listed for record [Time]. | Soil Temperature Observed at 2 inch depth (Degrees Fahrenheit F) This is an instantaneous reading at the record [Time]. | Soil Temperature Average at 4 inch depth (Degrees Fahrenheit F) that occurred during the prior hour interval listed for record [Time]. | Soil Temperature Observed at 4 inch depth (Degrees Fahrenheit F) This is an instantaneous reading at the record [Time]. |
|---|---|---|---|---|---|---|---|---|---|---|---|---|---|---|---|---|---|---|---|---|
| 08/27/2026 | 0:00:00 | 239 | 75 | 23:00:00 | 74 | 23:47:04 | 74 | 90 | 23:49:04 | 85 | 23:01:02 | 89.7 | 0 | 1.1 | 122 | 0 | 81 | 81 | 81 | 81 |
| 08/27/2026 | 1:00:00 | 239 | 74 | 0:00:01 | 73 | 0:57:03 | 73 | 92 | 0:59:04 | 90 | 0:00:03 | 92.4 | 0 | 2.4 | 183 | 0 | 81 | 81 | 81 | 81 |
| 08/27/2026 | 2:00:00 | 239 | 73 | 1:00:01 | 72 | 1:54:05 | 72 | 95 | 1:58:00 | 92 | 1:00:04 | 94.6 | 0 | 1.2 | 245 | 0 | 81 | 80 | 81 | 81 |
| 08/27/2026 | 3:00:00 | 239 | 72 | 2:59:03 | 72 | 2:14:02 | 72 | 96 | 2:59:01 | 95 | 2:11:03 | 95.8 | 0 | 0.3 | 191 | 0 | 80 | 80 | 81 | 81 |
| 08/27/2026 | 4:00:00 | 239 | 73 | 3:38:03 | 72 | 3:00:04 | 73 | 96 | 3:10:03 | 95 | 3:37:03 | 95.9 | 0 | 1.4 | 336 | 0 | 80 | 80 | 81 | 80 |
| 08/27/2026 | 5:00:00 | 239 | 73 | 4:41:02 | 73 | 4:03:02 | 73 | 98 | 4:59:04 | 96 | 4:00:01 | 97.7 | 0 | 1.2 | 339 | 0 | 80 | 80 | 80 | 80 |
| 08/27/2026 | 6:00:00 | 239 | 74 | 5:56:02 | 73 | 5:00:02 | 74 | 99 | 5:52:01 | 98 | 5:00:02 | 98.7 | 0 | 1.2 | 266 | 0 | 80 | 80 | 80 | 80 |
| 08/27/2026 | 7:00:00 | 239 | 75 | 6:27:00 | 74 | 6:01:01 | 74 | 99 | 6:59:04 | 99 | 6:32:04 | 99.1 | 0 | 1.5 | 260 | 3 | 80 | 80 | 80 | 80 |
| 08/27/2026 | 8:00:00 | 239 | 75 | 7:44:02 | 74 | 7:04:00 | 75 | 99 | 7:12:05 | 98 | 7:55:00 | 98.3 | 0 | 1.3 | 145 | 7 | 80 | 80 | 80 | 80 |
| 08/27/2026 | 9:00:00 | 239 | 78 | 8:57:04 | 75 | 8:04:04 | 78 | 99 | 8:02:01 | 89 | 8:59:01 | 89.3 | 0 | 3.3 | 193 | 14 | 80 | 80 | 80 | 80 |
| 08/27/2026 | 10:00:00 | 239 | 84 | 10:00:00 | 78 | 9:00:01 | 84 | 89 | 9:00:00 | 74 | 9:58:03 | 75.06 | 0 | 2.3 | 208 | 36 | 80 | 80 | 80 | 80 |
| 08/27/2026 | 11:00:00 | 239 | 88 | 10:53:03 | 82 | 10:19:01 | 87 | 77 | 10:12:03 | 62 | 10:54:02 | 65.73 | 0 | 3.4 | 93 | 57 | 81 | 81 | 80 | 80 |
| 08/27/2026 | 12:00:00 | 239 | 89 | 11:44:02 | 86 | 11:02:02 | 89 | 67 | 11:03:01 | 60 | 11:45:00 | 61.57 | 0 | 3.5 | 42 | 75 | 81 | 82 | 81 | 81 |
| 08/27/2026 | 13:00:00 | 239 | 92 | 12:56:01 | 88 | 12:09:01 | 91 | 63 | 12:25:03 | 54 | 12:59:04 | 54.8 | 0 | 3.8 | 10 | 74 | 82 | 83 | 81 | 82 |
| 08/27/2026 | 14:00:00 | 239 | 95 | 13:48:01 | 90 | 13:24:03 | 93 | 57 | 13:25:02 | 46 | 13:48:02 | 48.68 | 0 | 4.0 | 353 | 62 | 83 | 84 | 82 | 82 |
| 08/27/2026 | 15:00:00 | 239 | 94 | 14:18:04 | 91 | 14:33:04 | 93 | 55 | 14:50:02 | 48 | 14:19:04 | 51.35 | 0 | 3.1 | 342 | 35 | 84 | 84 | 82 | 83 |
| 08/27/2026 | 16:00:00 | 239 | 95 | 15:56:03 | 91 | 15:17:03 | 94 | 54 | 15:16:05 | 43 | 15:58:04 | 43.68 | 0 | 3.4 | 331 | 33 | 84 | 84 | 83 | 83 |
| 08/27/2026 | 17:00:00 | 239 | 95 | 16:08:04 | 90 | 16:44:00 | 92 | 56 | 16:18:04 | 38 | 16:06:04 | 46.75 | 0 | 3.1 | 14 | 22 | 84 | 84 | 83 | 83 |
| 08/27/2026 | 18:00:00 | 239 | 93 | 17:00:04 | 87 | 17:55:02 | 87 | 69 | 17:54:01 | 46 | 17:00:04 | 68.51 | 0 | 2.2 | 65 | 9 | 83 | 83 | 83 | 83 |
| 08/27/2026 | 19:00:00 | 239 | 87 | 18:05:00 | 82 | 18:59:03 | 82 | 78 | 18:58:05 | 65 | 18:06:05 | 77.7 | 0 | 1.1 | 42 | 1 | 83 | 83 | 83 | 83 |
| 08/27/2026 | 20:00:00 | 239 | 82 | 19:04:02 | 80 | 19:50:02 | 81 | 79 | 19:11:00 | 69 | 19:59:04 | 69.14 | 0 | 1.1 | 30 | 0 | 83 | 82 | 83 | 82 |
| 08/27/2026 | 21:00:00 | 239 | 81 | 20:04:03 | 77 | 20:58:00 | 78 | 76 | 20:58:02 | 67 | 20:12:04 | 75.46 | 0 | 1.8 | 38 | 0 | 82 | 82 | 82 | 82 |
| 08/27/2026 | 22:00:00 | 239 | 78 | 21:00:03 | 76 | 21:55:01 | 76 | 82 | 22:00:00 | 75 | 21:00:01 | 81.6 | 0 | 1.0 | 51 | 0 | 82 | 81 | 82 | 82 |
| 08/27/2026 | 23:00:00 | 239 | 77 | 22:29:03 | 75 | 22:59:05 | 75 | 85 | 23:00:00 | 79 | 22:29:04 | 84.9 | 0 | 0.9 | 16 | 0 | 81 | 81 | 82 | 81 |
| 08/28/2026 | 0:00:00 | 240 | 76 | 23:21:05 | 75 | 23:03:00 | 76 | 86 | 23:43:05 | 83 | 23:13:04 | 83.8 | 0 | 0.6 | 357 | 0 | 81 | 81 | 81 | 81 |
| 08/28/2026 | 1:00:00 | 240 | 77 | 0:39:05 | 76 | 0:00:01 | 77 | 84 | 0:00:01 | 75 | 0:55:03 | 75.92 | 0 | 0.4 | 4 | 0 | 81 | 81 | 81 | 81 |
| 08/28/2026 | 2:00:00 | 240 | 77 | 1:00:00 | 72 | 1:59:05 | 72 | 84 | 2:00:00 | 75 | 1:01:01 | 84 | 0 | 2.1 | 21 | 0 | 81 | 80 | 81 | 81 |
| 08/28/2026 | 3:00:00 | 240 | 73 | 2:31:03 | 71 | 2:59:05 | 71 | 85 | 3:00:00 | 81 | 2:31:02 | 85.1 | 0 | 1.7 | 14 | 0 | 80 | 80 | 81 | 81 |
| 08/28/2026 | 4:00:00 | 240 | 72 | 3:14:05 | 70 | 3:52:04 | 70 | 88 | 3:53:03 | 84 | 3:17:01 | 86.7 | 0 | 1.6 | 2 | 0 | 80 | 80 | 80 | 80 |
| 08/28/2026 | 5:00:00 | 240 | 71 | 4:08:01 | 69 | 4:59:02 | 69 | 88 | 4:55:02 | 86 | 4:08:04 | 88.2 | 0 | 1.1 | 356 | 0 | 79 | 79 | 80 | 80 |
| 08/28/2026 | 6:00:00 | 240 | 69 | 5:00:00 | 67 | 5:49:02 | 67 | 94 | 5:57:04 | 88 | 5:00:00 | 94 | 0 | 0.7 | 250 | 1 | 79 | 79 | 80 | 80 |
| 08/28/2026 | 7:00:00 | 240 | 75 | 7:00:00 | 67 | 6:00:01 | 75 | 94 | 6:00:01 | 79 | 6:59:00 | 80.1 | 0 | 0.8 | 282 | 12 | 79 | 79 | 80 | 79 |
| 08/28/2026 | 8:00:00 | 240 | 81 | 8:00:00 | 75 | 7:01:00 | 81 | 81 | 7:02:01 | 66 | 8:00:00 | 65.92 | 0 | 2.1 | 45 | 29 | 79 | 79 | 79 | 79 |
| 08/28/2026 | 9:00:00 | 240 | 85 | 8:58:03 | 81 | 8:00:00 | 85 | 67 | 8:03:05 | 57 | 8:51:04 | 57.11 | 0 | 2.9 | 58 | 46 | 79 | 79 | 79 | 79 |
| 08/28/2026 | 10:00:00 | 240 | 87 | 9:43:03 | 85 | 9:05:02 | 87 | 59 | 9:15:01 | 51 | 9:59:01 | 52.21 | 0 | 4.7 | 37 | 60 | 80 | 80 | 80 | 80 |
| 08/28/2026 | 11:00:00 | 240 | 90 | 10:56:04 | 87 | 10:00:00 | 89 | 53 | 10:08:02 | 42 | 10:58:05 | 41.79 | 0 | 4.8 | 31 | 70 | 80 | 81 | 80 | 80 |
| 08/28/2026 | 12:00:00 | 240 | 91 | 11:56:00 | 89 | 11:05:04 | 91 | 48 | 11:11:01 | 39 | 11:59:02 | 42.57 | 0 | 6.5 | 17 | 75 | 81 | 82 | 81 | 81 |
| 08/28/2026 | 13:00:00 | 240 | 91 | 12:59:02 | 90 | 12:10:01 | 91 | 46 | 12:18:03 | 39 | 12:26:03 | 39.36 | 0 | 6.5 | 6 | 73 | 82 | 82 | 81 | 81 |
| 08/28/2026 | 14:00:00 | 240 | 92 | 13:54:00 | 90 | 13:11:02 | 91 | 44 | 13:17:05 | 35 | 13:58:04 | 37.37 | 0 | 5.8 | 5 | 68 | 82 | 83 | 81 | 82 |
| 08/28/2026 | 15:00:00 | 240 | 93 | 14:07:01 | 91 | 14:32:04 | 91 | 41 | 14:19:01 | 34 | 14:41:03 | 38.44 | 0 | 5.1 | 7 | 59 | 83 | 83 | 82 | 82 |
| 08/28/2026 | 16:00:00 | 240 | 92 | 15:09:02 | 90 | 15:35:02 | 91 | 40 | 15:37:02 | 34 | 15:58:04 | 34.66 | 0 | 4.4 | 20 | 43 | 83 | 83 | 82 | 82 |
| 08/28/2026 | 17:00:00 | 240 | 91 | 16:11:05 | 87 | 16:59:05 | 87 | 45 | 16:58:01 | 34 | 16:02:03 | 45.09 | 0 | 3.5 | 18 | 21 | 83 | 83 | 82 | 82 |
| 08/28/2026 | 18:00:00 | 240 | 88 | 17:16:02 | 85 | 17:59:05 | 85 | 48 | 17:59:01 | 42 | 17:28:00 | 46.6 | 0 | 3.1 | 30 | 13 | 82 | 82 | 82 | 82 |
| 08/28/2026 | 19:00:00 | 240 | 85 | 18:00:01 | 78 | 18:56:04 | 78 | 60 | 18:38:00 | 46 | 18:02:05 | 58.21 | 0 | 1.1 | 37 | 1 | 82 | 82 | 82 | 82 |
| 08/28/2026 | 20:00:00 | 240 | 78 | 19:00:05 | 72 | 20:00:00 | 72 | 74 | 19:59:05 | 58 | 19:06:02 | 73.59 | 0 | 0.9 | 332 | 0 | 81 | 81 | 82 | 81 |
| 08/28/2026 | 21:00:00 | 240 | 72 | 20:01:05 | 70 | 20:59:00 | 70 | 79 | 20:54:00 | 73 | 20:00:01 | 78.65 | 0 | 0.3 | 4 | 0 | 81 | 80 | 81 | 81 |
| 08/28/2026 | 22:00:00 | 240 | 71 | 21:06:04 | 68 | 21:59:02 | 68 | 84 | 21:57:04 | 78 | 21:08:02 | 83.4 | 0 | 0.1 | 121 | 0 | 80 | 80 | 81 | 81 |
| 08/28/2026 | 23:00:00 | 240 | 68 | 22:00:03 | 67 | 22:48:01 | 67 | 88 | 22:59:01 | 83 | 22:00:00 | 87.5 | 0 | 0.2 | 32 | 0 | 80 | 79 | 80 | 80 |
| 08/29/2026 | 0:00:00 | 241 | 67 | 23:28:05 | 66 | 23:59:05 | 66 | 91 | 23:58:05 | 86 | 23:23:01 | 90.8 | 0 | 0.1 | 59 | 0 | 79 | 79 | 80 | 80 |
| 08/29/2026 | 1:00:00 | 241 | 66 | 0:05:00 | 65 | 0:55:00 | 65 | 92 | 0:59:05 | 90 | 0:22:03 | 92.1 | 0 | 0.0 | 0 | 0 | 79 | 78 | 80 | 79 |
| 08/29/2026 | 2:00:00 | 241 | 65 | 1:02:04 | 64 | 1:59:05 | 64 | 94 | 1:39:01 | 92 | 1:00:03 | 93.8 | 0 | 0.0 | 0 | 0 | 78 | 78 | 79 | 79 |
| 08/29/2026 | 3:00:00 | 241 | 64 | 2:03:02 | 62 | 3:00:00 | 62 | 96 | 2:59:01 | 94 | 2:00:00 | 95.6 | 0 | 0.2 | 15 | 0 | 78 | 78 | 79 | 79 |
| 08/29/2026 | 4:00:00 | 241 | 63 | 3:10:01 | 62 | 3:44:00 | 62 | 97 | 3:03:05 | 96 | 3:00:01 | 96.7 | 0 | 0.4 | 314 | 0 | 77 | 77 | 78 | 78 |
| 08/29/2026 | 5:00:00 | 241 | 62 | 4:00:01 | 61 | 4:45:04 | 61 | 98 | 4:55:05 | 96 | 4:06:01 | 97.3 | 0 | 0.3 | 92 | 0 | 77 | 77 | 78 | 78 |
| 08/29/2026 | 6:00:00 | 241 | 62 | 6:00:00 | 60 | 5:46:03 | 62 | 98 | 5:56:02 | 97 | 5:06:05 | 98.2 | 0 | 0.3 | 115 | 1 | 77 | 77 | 78 | 78 |
| 08/29/2026 | 7:00:00 | 241 | 73 | 6:59:03 | 62 | 6:00:00 | 73 | 98 | 6:00:03 | 81 | 7:00:00 | 81.1 | 0 | 0.1 | 144 | 15 | 76 | 76 | 78 | 77 |
| 08/29/2026 | 8:00:00 | 241 | 82 | 7:51:05 | 73 | 7:00:00 | 82 | 82 | 7:01:00 | 65 | 7:55:05 | 67.29 | 0 | 0.5 | 67 | 31 | 76 | 77 | 77 | 77 |
| 08/29/2026 | 9:00:00 | 241 | 87 | 8:55:04 | 82 | 8:00:00 | 87 | 68 | 8:00:04 | 43 | 8:58:03 | 45.94 | 0 | 2.2 | 30 | 48 | 77 | 77 | 77 | 78 |
| 08/29/2026 | 10:00:00 | 241 | 89 | 9:59:05 | 86 | 9:08:01 | 89 | 48 | 9:01:02 | 36 | 9:58:01 | 36.72 | 0 | 3.3 | 351 | 62 | 78 | 78 | 78 | 78 |
| 08/29/2026 | 11:00:00 | 241 | 92 | 11:00:00 | 88 | 10:06:03 | 92 | 40 | 10:15:04 | 34 | 10:58:04 | 34.5 | 0 | 3.4 | 297 | 71 | 79 | 79 | 78 | 79 |
| 08/29/2026 | 12:00:00 | 241 | 93 | 11:49:03 | 90 | 11:09:05 | 91 | 39 | 11:59:05 | 33 | 11:29:00 | 38.63 | 0 | 3.4 | 339 | 76 | 80 | 80 | 79 | 79 |
| 08/29/2026 | 13:00:00 | 241 | 93 | 12:47:03 | 90 | 12:05:00 | 93 | 39 | 12:02:02 | 32 | 12:58:04 | 33.08 | 0 | 3.9 | 327 | 76 | 81 | 81 | 80 | 80 |
| 08/29/2026 | 14:00:00 | 241 | 95 | 13:39:05 | 91 | 13:13:00 | 94 | 36 | 13:01:03 | 29 | 13:39:01 | 30.26 | 0 | 3.7 | 11 | 71 | 82 | 82 | 80 | 81 |
| 08/29/2026 | 15:00:00 | 241 | 95 | 14:48:01 | 93 | 14:08:04 | 94 | 35 | 14:12:04 | 26 | 14:57:01 | 28.26 | 0 | 3.3 | 75 | 60 | 82 | 82 | 81 | 81 |
| 08/29/2026 | 16:00:00 | 241 | 95 | 15:27:03 | 93 | 15:43:03 | 94 | 33 | 15:55:00 | 26 | 15:02:03 | 31.18 | 0 | 4.3 | 127 | 46 | 83 | 83 | 81 | 81 |
| 08/29/2026 | 17:00:00 | 241 | 94 | 16:00:01 | 92 | 16:50:04 | 93 | 35 | 16:51:02 | 30 | 16:04:00 | 34.03 | 0 | 4.3 | 113 | 29 | 82 | 82 | 81 | 81 |
| 08/29/2026 | 18:00:00 | 241 | 93 | 17:33:01 | 90 | 17:57:01 | 91 | 39 | 17:58:05 | 33 | 17:21:00 | 38.41 | 0 | 2.6 | 149 | 12 | 82 | 82 | 81 | 81 |
| 08/29/2026 | 19:00:00 | 241 | 91 | 18:01:01 | 79 | 18:59:02 | 79 | 64 | 18:59:04 | 38 | 18:02:04 | 63.57 | 0 | 0.3 | 204 | 1 | 82 | 81 | 81 | 81 |
| 08/29/2026 | 20:00:00 | 241 | 79 | 19:00:00 | 75 | 19:53:03 | 75 | 72 | 19:53:03 | 63 | 19:00:03 | 71.48 | 0 | 0.6 | 112 | 0 | 81 | 81 | 81 | 81 |
| 08/29/2026 | 21:00:00 | 241 | 75 | 20:00:01 | 71 | 21:00:00 | 71 | 82 | 20:59:01 | 72 | 20:00:00 | 81.2 | 0 | 0.5 | 71 | 0 | 80 | 80 | 81 | 80 |
| 08/29/2026 | 22:00:00 | 241 | 71 | 21:00:00 | 69 | 21:51:03 | 70 | 87 | 21:55:03 | 81 | 21:00:01 | 85.6 | 0 | 1.0 | 81 | 0 | 80 | 79 | 80 | 80 |
| 08/29/2026 | 23:00:00 | 241 | 70 | 22:01:02 | 68 | 22:39:05 | 69 | 86 | 22:25:02 | 84 | 22:13:00 | 85.6 | 0 | 0.6 | 89 | 0 | 79 | 79 | 80 | 80 |
| 08/30/2026 | 0:00:00 | 242 | 69 | 23:00:00 | 66 | 23:52:03 | 67 | 90 | 23:56:00 | 86 | 23:00:00 | 89 | 0 | 0.6 | 41 | 0 | 79 | 79 | 79 | 79 |
| 08/30/2026 | 1:00:00 | 242 | 68 | 0:36:00 | 67 | 0:19:01 | 67 | 89 | 0:00:00 | 87 | 0:15:03 | 88.5 | 0 | 0.4 | 18 | 0 | 78 | 78 | 79 | 79 |
| 08/30/2026 | 2:00:00 | 242 | 67 | 1:45:00 | 67 | 1:20:01 | 67 | 91 | 1:59:05 | 89 | 1:00:00 | 90.6 | 0 | 0.2 | 99 | 0 | 78 | 78 | 79 | 79 |
| 08/30/2026 | 3:00:00 | 242 | 67 | 3:00:00 | 67 | 2:46:04 | 67 | 93 | 2:49:03 | 90 | 2:01:03 | 92.4 | 0 | 0.5 | 110 | 0 | 78 | 78 | 79 | 78 |
| 08/30/2026 | 4:00:00 | 242 | 68 | 3:05:03 | 66 | 3:54:00 | 67 | 94 | 3:59:05 | 91 | 3:07:05 | 94 | 0 | 0.5 | 41 | 0 | 77 | 77 | 78 | 78 |
| 08/30/2026 | 5:00:00 | 242 | 67 | 4:02:04 | 66 | 4:19:05 | 67 | 95 | 4:23:01 | 94 | 4:56:05 | 94 | 0 | 0.3 | 58 | 0 | 77 | 77 | 78 | 78 |
| 08/30/2026 | 6:00:00 | 242 | 69 | 5:59:05 | 66 | 5:37:05 | 69 | 96 | 5:43:01 | 94 | 5:18:01 | 94.2 | 0 | 0.8 | 188 | 1 | 77 | 77 | 78 | 78 |
| 08/30/2026 | 7:00:00 | 242 | 79 | 7:00:00 | 69 | 6:00:00 | 79 | 94 | 6:00:03 | 78 | 6:59:05 | 78.66 | 0 | 0.9 | 193 | 12 | 77 | 77 | 78 | 78 |
| 08/30/2026 | 8:00:00 | 242 | 83 | 8:00:00 | 79 | 7:00:00 | 83 | 79 | 7:00:02 | 70 | 7:58:02 | 69.99 | 0 | 4.8 | 185 | 28 | 77 | 77 | 78 | 78 |
| 08/30/2026 | 9:00:00 | 242 | 87 | 9:00:00 | 83 | 8:02:04 | 87 | 70 | 8:00:00 | 64 | 8:46:00 | 63.9 | 0 | 5.3 | 189 | 45 | 78 | 78 | 78 | 78 |
| 08/30/2026 | 10:00:00 | 242 | 91 | 9:57:01 | 87 | 9:02:02 | 91 | 65 | 9:07:00 | 57 | 9:47:05 | 58.2 | 0 | 4.7 | 198 | 58 | 78 | 79 | 78 | 78 |
| 08/30/2026 | 11:00:00 | 242 | 94 | 10:55:00 | 90 | 10:16:02 | 93 | 59 | 10:02:02 | 52 | 10:43:01 | 53.83 | 0 | 6.2 | 161 | 72 | 80 | 80 | 79 | 79 |
| 08/30/2026 | 12:00:00 | 242 | 95 | 11:54:00 | 91 | 11:18:04 | 95 | 59 | 11:19:03 | 48 | 11:59:03 | 49.15 | 0 | 4.9 | 169 | 51 | 81 | 81 | 80 | 80 |
| 08/30/2026 | 13:00:00 | 242 | 96 | 12:51:02 | 94 | 12:31:03 | 96 | 51 | 12:18:03 | 44 | 12:58:01 | 45.82 | 0 | 5.8 | 151 | 79 | 82 | 82 | 80 | 81 |
| 08/30/2026 | 14:00:00 | 242 | 97 | 13:16:02 | 92 | 13:36:04 | 96 | 52 | 13:41:04 | 45 | 13:16:02 | 47.15 | 0 | 6.3 | 132 | 58 | 83 | 83 | 81 | 81 |
| 08/30/2026 | 15:00:00 | 242 | 97 | 14:23:02 | 93 | 14:59:00 | 93 | 50 | 14:04:04 | 43 | 14:12:05 | 49.31 | 0 | 6.0 | 165 | 49 | 83 | 84 | 82 | 82 |
| 08/30/2026 | 16:00:00 | 242 | 96 | 15:46:05 | 93 | 15:03:05 | 95 | 50 | 15:07:04 | 44 | 15:28:01 | 45.84 | 0 | 5.5 | 161 | 39 | 84 | 84 | 82 | 82 |
| 08/30/2026 | 17:00:00 | 242 | 96 | 16:10:00 | 93 | 16:34:00 | 94 | 50 | 16:34:02 | 45 | 16:09:03 | 48.09 | 0 | 5.3 | 144 | 21 | 84 | 84 | 82 | 82 |
| 08/30/2026 | 18:00:00 | 242 | 94 | 17:00:04 | 90 | 17:59:00 | 90 | 56 | 17:58:01 | 48 | 17:01:03 | 55.58 | 0 | 4.8 | 100 | 11 | 83 | 83 | 82 | 82 |
| 08/30/2026 | 19:00:00 | 242 | 90 | 18:00:00 | 85 | 18:59:05 | 86 | 64 | 18:59:05 | 56 | 18:00:00 | 63.62 | 0 | 3.7 | 123 | 1 | 83 | 83 | 82 | 82 |
| 08/30/2026 | 20:00:00 | 242 | 86 | 19:00:00 | 82 | 19:53:05 | 83 | 70 | 19:54:03 | 64 | 19:00:00 | 69.59 | 0 | 2.0 | 129 | 0 | 82 | 82 | 82 | 82 |
| 08/30/2026 | 21:00:00 | 242 | 83 | 20:00:00 | 78 | 20:59:02 | 78 | 81 | 20:58:04 | 70 | 20:00:03 | 80.9 | 0 | 0.8 | 76 | 0 | 82 | 81 | 82 | 81 |
| 08/30/2026 | 22:00:00 | 242 | 78 | 21:28:01 | 76 | 21:43:04 | 76 | 85 | 21:44:04 | 80 | 21:34:04 | 83.5 | 0 | 0.9 | 81 | 0 | 81 | 81 | 81 | 81 |
| 08/30/2026 | 23:00:00 | 242 | 76 | 22:07:05 | 75 | 22:33:03 | 75 | 88 | 22:40:04 | 83 | 22:09:02 | 86.1 | 0 | 0.7 | 128 | 0 | 81 | 80 | 81 | 81 |
| 08/31/2026 | 0:00:00 | 243 | 76 | 23:03:04 | 74 | 23:59:05 | 74 | 88 | 23:58:00 | 85 | 23:04:02 | 87.9 | 0 | 0.3 | 122 | 0 | 80 | 80 | 81 | 80 |
| 08/31/2026 | 1:00:00 | 243 | 74 | 0:00:01 | 73 | 0:53:05 | 73 | 92 | 0:59:05 | 88 | 0:00:00 | 92.1 | 0 | 0.9 | 116 | 0 | 80 | 80 | 80 | 80 |
| 08/31/2026 | 2:00:00 | 243 | 73 | 1:00:02 | 72 | 1:15:04 | 72 | 94 | 1:21:00 | 92 | 1:02:02 | 93.2 | 0 | 0.2 | 64 | 0 | 79 | 79 | 80 | 80 |
| 08/31/2026 | 3:00:00 | 243 | 72 | 2:16:00 | 70 | 3:00:00 | 70 | 94 | 2:31:04 | 93 | 2:19:03 | 93.5 | 0 | 0.4 | 78 | 0 | 79 | 79 | 80 | 79 |
| 08/31/2026 | 4:00:00 | 243 | 71 | 3:50:02 | 70 | 3:09:02 | 70 | 97 | 3:49:04 | 93 | 3:00:00 | 96.3 | 0 | 0.6 | 45 | 0 | 79 | 79 | 79 | 79 |
| 08/31/2026 | 5:00:00 | 243 | 71 | 4:35:05 | 70 | 4:01:00 | 71 | 97 | 4:34:03 | 96 | 4:41:00 | 96.8 | 0 | 0.6 | 127 | 0 | 78 | 78 | 79 | 79 |
| 08/31/2026 | 6:00:00 | 243 | 71 | 5:53:04 | 70 | 5:34:04 | 71 | 98 | 5:42:04 | 96 | 5:58:02 | 96.4 | 0 | 0.6 | 55 | 1 | 78 | 78 | 79 | 79 |
| 08/31/2026 | 7:00:00 | 243 | 81 | 7:00:00 | 71 | 6:00:00 | 81 | 97 | 6:04:00 | 80 | 6:59:02 | 80.5 | 0 | 0.7 | 126 | 13 | 78 | 78 | 79 | 79 |
| 08/31/2026 | 8:00:00 | 243 | 85 | 7:54:04 | 81 | 7:00:00 | 85 | 81 | 7:00:03 | 69 | 7:59:03 | 69.14 | 0 | 3.5 | 173 | 29 | 78 | 78 | 79 | 79 |
| 08/31/2026 | 9:00:00 | 243 | 89 | 8:59:00 | 85 | 8:00:03 | 89 | 70 | 8:01:02 | 62 | 8:35:04 | 62.85 | 0 | 3.3 | 214 | 45 | 79 | 79 | 79 | 79 |
| 08/31/2026 | 10:00:00 | 243 | 93 | 9:45:00 | 89 | 9:00:00 | 92 | 64 | 9:00:01 | 55 | 9:56:00 | 55.92 | 0 | 4.9 | 194 | 59 | 80 | 80 | 79 | 79 |
| 08/31/2026 | 11:00:00 | 243 | 94 | 10:25:05 | 91 | 10:01:03 | 92 | 58 | 10:06:03 | 51 | 10:44:03 | 53.36 | 0 | 4.9 | 237 | 59 | 81 | 81 | 80 | 80 |
| 08/31/2026 | 12:00:00 | 243 | 97 | 12:00:00 | 91 | 11:05:00 | 97 | 55 | 11:12:04 | 45 | 11:59:00 | 46.23 | 0 | 4.7 | 222 | 68 | 82 | 82 | 80 | 81 |
| 08/31/2026 | 13:00:00 | 243 | 97 | 12:50:01 | 95 | 12:08:02 | 95 | 50 | 12:43:03 | 44 | 12:01:03 | 46.49 | 0 | 4.1 | 215 | 70 | 83 | 83 | 81 | 81 |
| 08/31/2026 | 14:00:00 | 243 | 99 | 13:15:05 | 95 | 13:50:04 | 96 | 48 | 13:09:03 | 42 | 13:15:05 | 45.19 | 0 | 3.8 | 135 | 70 | 84 | 84 | 82 | 82 |
| 08/31/2026 | 15:00:00 | 243 | 97 | 14:03:01 | 93 | 14:17:04 | 95 | 52 | 14:39:04 | 44 | 14:03:03 | 47.49 | 0 | 3.3 | 70 | 33 | 84 | 84 | 82 | 83 |
| 08/31/2026 | 16:00:00 | 243 | 97 | 15:48:03 | 94 | 15:02:05 | 97 | 50 | 15:06:04 | 43 | 15:48:03 | 43.38 | 0 | 3.6 | 130 | 35 | 84 | 84 | 83 | 83 |
| 08/31/2026 | 17:00:00 | 243 | 97 | 16:02:04 | 93 | 16:31:00 | 95 | 51 | 16:33:00 | 42 | 16:11:05 | 47.93 | 0 | 4.6 | 117 | 17 | 84 | 84 | 83 | 83 |
| 08/31/2026 | 18:00:00 | 243 | 95 | 17:08:04 | 91 | 17:59:01 | 91 | 54 | 18:00:00 | 46 | 17:04:03 | 54.49 | 0 | 4.5 | 113 | 11 | 84 | 84 | 83 | 83 |
| 08/31/2026 | 19:00:00 | 243 | 91 | 18:00:00 | 85 | 18:57:01 | 86 | 65 | 18:57:04 | 54 | 18:00:03 | 64.91 | 0 | 1.6 | 88 | 1 | 83 | 83 | 83 | 83 |
| 08/31/2026 | 20:00:00 | 243 | 86 | 19:00:02 | 81 | 19:54:03 | 81 | 77 | 19:56:00 | 65 | 19:00:00 | 76.04 | 0 | 0.5 | 72 | 0 | 83 | 82 | 82 | 82 |
| 08/31/2026 | 21:00:00 | 243 | 81 | 20:00:01 | 79 | 20:55:02 | 79 | 82 | 20:42:02 | 76 | 20:00:01 | 81.6 | 0 | 0.7 | 137 | 0 | 82 | 82 | 82 | 82 |
| 08/31/2026 | 22:00:00 | 243 | 80 | 21:09:01 | 78 | 21:33:00 | 79 | 84 | 21:34:00 | 80 | 21:08:04 | 83.3 | 0 | 0.7 | 75 | 0 | 82 | 81 | 82 | 82 |
| 08/31/2026 | 23:00:00 | 243 | 79 | 22:06:01 | 77 | 22:25:01 | 77 | 87 | 22:25:04 | 83 | 22:06:05 | 86.1 | 0 | 0.7 | 42 | 0 | 81 | 81 | 81 | 81 |
| 09/01/2026 | 0:00:00 | 244 | 78 | 23:09:03 | 74 | 23:59:05 | 74 | 91 | 23:40:04 | 84 | 23:10:05 | 90 | 0 | 1.2 | 43 | 0 | 81 | 81 | 81 | 81 |
| 09/01/2026 | 1:00:00 | 244 | 76 | 0:19:01 | 73 | 0:55:04 | 74 | 94 | 1:00:00 | 89 | 0:21:03 | 93.8 | 0 | 0.4 | 48 | 0 | 80 | 80 | 81 | 81 |
| 09/01/2026 | 2:00:00 | 244 | 75 | 1:28:02 | 74 | 1:55:02 | 74 | 94 | 1:00:01 | 91 | 1:38:00 | 93.7 | 0 | 0.6 | 125 | 0 | 80 | 80 | 81 | 80 |
| 09/01/2026 | 3:00:00 | 244 | 74 | 2:17:00 | 72 | 2:49:01 | 73 | 95 | 2:53:01 | 93 | 2:26:00 | 94.4 | 0 | 0.5 | 57 | 0 | 80 | 80 | 80 | 80 |
| 09/01/2026 | 4:00:00 | 244 | 73 | 3:04:01 | 73 | 3:16:05 | 73 | 95 | 3:20:02 | 93 | 3:08:01 | 94.5 | 0 | 0.5 | 95 | 0 | 79 | 79 | 80 | 80 |
| 09/01/2026 | 5:00:00 | 244 | 73 | 4:03:01 | 72 | 4:47:03 | 72 | 96 | 4:56:05 | 94 | 4:07:02 | 95.6 | 0 | 0.5 | 75 | 0 | 79 | 79 | 80 | 80 |
| 09/01/2026 | 6:00:00 | 244 | 73 | 5:52:04 | 71 | 5:23:02 | 72 | 97 | 5:39:00 | 95 | 5:56:03 | 95.9 | 0 | 0.8 | 115 | 1 | 79 | 79 | 80 | 79 |
| 09/01/2026 | 7:00:00 | 244 | 80 | 6:56:03 | 72 | 6:00:00 | 80 | 96 | 6:05:00 | 84 | 6:57:02 | 85.7 | 0 | 0.7 | 48 | 11 | 79 | 79 | 79 | 79 |
| 09/01/2026 | 8:00:00 | 244 | 89 | 7:53:01 | 80 | 7:00:01 | 88 | 86 | 7:00:04 | 63 | 7:54:04 | 65.94 | 0 | 1.1 | 162 | 28 | 79 | 79 | 79 | 79 |
| 09/01/2026 | 9:00:00 | 244 | 91 | 8:58:02 | 88 | 8:00:00 | 90 | 67 | 8:01:01 | 59 | 8:57:04 | 61.24 | 0 | 2.2 | 203 | 38 | 79 | 80 | 79 | 79 |
| 09/01/2026 | 10:00:00 | 244 | 95 | 9:47:02 | 90 | 9:01:05 | 95 | 63 | 9:00:02 | 50 | 9:59:04 | 50.07 | 0 | 2.5 | 146 | 58 | 80 | 81 | 80 | 80 |
| 09/01/2026 | 11:00:00 | 244 | 97 | 10:54:02 | 94 | 10:13:05 | 96 | 54 | 10:16:00 | 45 | 10:54:03 | 46.96 | 0 | 3.4 | 127 | 72 | 81 | 82 | 80 | 81 |
| 09/01/2026 | 12:00:00 | 244 | 98 | 11:48:03 | 94 | 11:25:00 | 97 | 50 | 11:20:03 | 44 | 11:14:02 | 46.9 | 0 | 3.7 | 126 | 78 | 82 | 83 | 81 | 81 |
| 09/01/2026 | 13:00:00 | 244 | 100 | 12:59:00 | 95 | 12:44:05 | 99 | 47 | 12:02:02 | 38 | 12:59:02 | 39.23 | 0 | 4.0 | 89 | 69 | 84 | 84 | 82 | 82 |
| 09/01/2026 | 14:00:00 | 244 | 100 | 13:45:04 | 97 | 13:11:00 | 98 | 43 | 13:25:00 | 37 | 13:33:03 | 40.96 | 0 | 4.3 | 128 | 70 | 84 | 85 | 82 | 83 |
| 09/01/2026 | 15:00:00 | 244 | 100 | 14:28:01 | 98 | 14:48:05 | 99 | 43 | 14:01:01 | 36 | 14:25:03 | 37.25 | 0 | 5.9 | 98 | 59 | 85 | 85 | 83 | 83 |
| 09/01/2026 | 16:00:00 | 244 | 100 | 15:30:01 | 98 | 15:50:01 | 98 | 40 | 15:10:01 | 34 | 15:30:01 | 38.26 | 0 | 4.9 | 123 | 41 | 85 | 85 | 83 | 83 |
| 09/01/2026 | 17:00:00 | 244 | 99 | 16:03:00 | 95 | 16:58:00 | 96 | 43 | 16:58:03 | 37 | 16:00:02 | 42.13 | 0 | 6.1 | 153 | 23 | 85 | 85 | 83 | 84 |
| 09/01/2026 | 18:00:00 | 244 | 96 | 17:16:00 | 92 | 17:59:03 | 93 | 49 | 17:58:03 | 40 | 17:13:01 | 48.91 | 0 | 2.5 | 122 | 9 | 84 | 84 | 83 | 83 |
| 09/01/2026 | 19:00:00 | 244 | 93 | 18:00:02 | 85 | 18:59:00 | 86 | 63 | 18:58:03 | 49 | 18:00:00 | 63.2 | 0 | 0.7 | 93 | 1 | 84 | 84 | 83 | 83 |
| 09/01/2026 | 20:00:00 | 244 | 86 | 19:00:00 | 81 | 19:50:05 | 82 | 73 | 19:53:02 | 63 | 19:00:03 | 72.3 | 0 | 0.7 | 61 | 0 | 83 | 83 | 83 | 83 |
| 09/01/2026 | 21:00:00 | 244 | 82 | 20:13:00 | 79 | 21:00:00 | 79 | 81 | 20:59:05 | 72 | 20:00:01 | 80.7 | 0 | 0.6 | 125 | 0 | 83 | 82 | 83 | 82 |
| 09/01/2026 | 22:00:00 | 244 | 81 | 21:46:05 | 78 | 21:24:02 | 80 | 82 | 21:24:02 | 75 | 21:46:03 | 76.19 | 0 | 1.2 | 93 | 0 | 82 | 82 | 82 | 82 |
| 09/01/2026 | 23:00:00 | 244 | 80 | 22:00:00 | 77 | 22:58:03 | 77 | 84 | 22:15:05 | 76 | 22:00:00 | 83.3 | 0 | 0.2 | 153 | 0 | 82 | 81 | 82 | 82 |
| 09/02/2026 | 0:00:00 | 245 | 78 | 23:20:02 | 76 | 23:54:05 | 76 | 86 | 23:59:03 | 82 | 23:21:02 | 85.8 | 0 | 0.2 | 123 | 0 | 81 | 81 | 82 | 81 |
| 09/02/2026 | 1:00:00 | 245 | 76 | 0:03:05 | 75 | 1:00:00 | 75 | 87 | 1:00:00 | 85 | 0:38:02 | 86.5 | 0 | 0.1 | 67 | 0 | 81 | 81 | 81 | 81 |
| 09/02/2026 | 2:00:00 | 245 | 75 | 1:00:00 | 74 | 1:49:02 | 74 | 91 | 1:52:01 | 87 | 1:00:00 | 90.2 | 0 | 0.2 | 28 | 0 | 81 | 80 | 81 | 81 |
| 09/02/2026 | 3:00:00 | 245 | 74 | 2:10:05 | 74 | 2:51:05 | 74 | 91 | 2:59:03 | 89 | 2:31:01 | 90.5 | 0 | 0.1 | 14 | 0 | 80 | 80 | 81 | 81 |
| 09/02/2026 | 4:00:00 | 245 | 74 | 3:00:00 | 72 | 3:45:05 | 73 | 93 | 3:50:01 | 90 | 3:01:02 | 92.2 | 0 | 0.2 | 247 | 0 | 80 | 80 | 80 | 80 |
| 09/02/2026 | 5:00:00 | 245 | 73 | 4:09:03 | 72 | 4:50:05 | 72 | 93 | 4:54:04 | 92 | 4:15:00 | 93.1 | 0 | 0.0 | 0 | 0 | 80 | 80 | 80 | 80 |
| 09/02/2026 | 6:00:00 | 245 | 73 | 5:59:05 | 72 | 5:11:04 | 73 | 94 | 5:21:00 | 92 | 5:58:03 | 92.5 | 0 | 0.3 | 103 | 1 | 79 | 79 | 80 | 80 |
| 09/02/2026 | 7:00:00 | 245 | 82 | 7:00:00 | 73 | 6:00:01 | 82 | 93 | 6:00:01 | 77 | 7:00:00 | 77.26 | 0 | 0.3 | 173 | 11 | 79 | 79 | 80 | 80 |
| 09/02/2026 | 8:00:00 | 245 | 87 | 8:00:00 | 82 | 7:00:00 | 87 | 78 | 7:00:05 | 67 | 7:59:04 | 67.58 | 0 | 3.3 | 199 | 28 | 79 | 79 | 80 | 80 |
| 09/02/2026 | 9:00:00 | 245 | 91 | 8:55:03 | 87 | 8:00:00 | 90 | 68 | 8:00:01 | 60 | 8:56:00 | 62.1 | 0 | 2.0 | 308 | 44 | 80 | 80 | 80 | 80 |
| 09/02/2026 | 10:00:00 | 245 | 95 | 9:51:04 | 90 | 9:00:00 | 94 | 63 | 9:00:01 | 53 | 9:52:01 | 55.7 | 0 | 2.8 | 22 | 57 | 81 | 81 | 80 | 80 |
| 09/02/2026 | 11:00:00 | 245 | 98 | 10:52:05 | 93 | 10:08:00 | 94 | 56 | 10:02:05 | 44 | 10:53:00 | 48.2 | 0 | 4.2 | 117 | 63 | 82 | 82 | 81 | 81 |
| 09/02/2026 | 12:00:00 | 245 | 98 | 11:56:01 | 93 | 11:21:03 | 98 | 51 | 11:19:02 | 43 | 11:56:03 | 43.21 | 0 | 2.3 | 166 | 41 | 83 | 83 | 81 | 82 |
| 09/02/2026 | 13:00:00 | 245 | 100 | 12:50:04 | 95 | 12:12:02 | 98 | 47 | 12:15:00 | 38 | 12:50:04 | 40.5 | 0 | 3.6 | 169 | 50 | 83 | 83 | 82 | 82 |
| 09/02/2026 | 14:00:00 | 245 | 99 | 13:07:04 | 96 | 13:16:01 | 98 | 45 | 13:21:03 | 40 | 13:07:04 | 41.88 | 0 | 3.4 | 168 | 44 | 84 | 84 | 82 | 83 |
| 09/02/2026 | 15:00:00 | 245 | 100 | 14:55:00 | 97 | 14:22:03 | 100 | 45 | 14:33:05 | 38 | 14:58:03 | 38.38 | 0 | 3.4 | 131 | 40 | 84 | 84 | 83 | 83 |
| 09/02/2026 | 16:00:00 | 245 | 100 | 15:00:04 | 96 | 15:43:02 | 97 | 44 | 15:42:05 | 38 | 15:09:01 | 41.3 | 0 | 3.9 | 114 | 23 | 84 | 84 | 83 | 83 |
| 09/02/2026 | 17:00:00 | 245 | 99 | 16:11:03 | 96 | 16:51:03 | 96 | 45 | 16:54:03 | 39 | 16:13:01 | 44.92 | 0 | 4.1 | 118 | 20 | 84 | 84 | 83 | 83 |
| 09/02/2026 | 18:00:00 | 245 | 96 | 17:00:01 | 93 | 17:57:05 | 93 | 53 | 17:45:03 | 45 | 17:00:01 | 51.99 | 0 | 2.4 | 121 | 7 | 84 | 84 | 83 | 83 |
| 09/02/2026 | 19:00:00 | 245 | 93 | 18:00:02 | 87 | 19:00:00 | 87 | 60 | 19:00:00 | 51 | 18:00:01 | 59.91 | 0 | 1.3 | 66 | 0 | 83 | 83 | 83 | 83 |
| 09/02/2026 | 20:00:00 | 245 | 87 | 19:04:04 | 82 | 19:59:03 | 82 | 73 | 19:59:04 | 57 | 19:09:02 | 72.53 | 0 | 1.3 | 98 | 0 | 83 | 83 | 83 | 83 |
| 09/02/2026 | 21:00:00 | 245 | 84 | 20:33:00 | 82 | 20:03:05 | 82 | 73 | 20:03:01 | 66 | 20:32:04 | 70.6 | 0 | 2.0 | 92 | 0 | 82 | 82 | 82 | 82 |
| 09/02/2026 | 22:00:00 | 245 | 82 | 21:00:00 | 79 | 21:43:03 | 80 | 78 | 21:44:00 | 71 | 21:00:00 | 76.01 | 0 | 0.4 | 112 | 0 | 82 | 82 | 82 | 82 |
| Average | 83.68 | 80.42 | 82.09 | 72.74 | 65.35 | 68.99 | 0 | 2.19 | 21.68 | 80.87 | 80.86 | 80.69 | 80.68 | |||||||
| Total | 0 |